sensor_id;sensor_type;location;lat;lon;timestamp;pressure;altitude;pressure_sealevel;temperature;humidity
72124;BME280;63818;37.134;-8.548;2023-05-14T00:02:27;101515.8;;;22.6;37.5
72124;BME280;63818;37.134;-8.548;2023-05-14T00:07:13;101516.6;;;22.6;37.4
72124;BME280;63818;37.134;-8.548;2023-05-14T00:11:58;101511.8;;;22.5;37.3
72124;BME280;63818;37.134;-8.548;2023-05-14T00:16:44;101507.5;;;22.5;37.4
72124;BME280;63818;37.134;-8.548;2023-05-14T00:21:30;101505.9;;;22.5;37.5
72124;BME280;63818;37.134;-8.548;2023-05-14T00:26:16;101496.9;;;22.5;37.4
72124;BME280;63818;37.134;-8.548;2023-05-14T00:36:23;101491.8;;;22.5;37.6
72124;BME280;63818;37.134;-8.548;2023-05-14T00:41:09;101483.9;;;22.5;37.4
72124;BME280;63818;37.134;-8.548;2023-05-14T00:45:55;101483.6;;;22.5;37.7
72124;BME280;63818;37.134;-8.548;2023-05-14T00:50:41;101476.1;;;22.5;37.6
72124;BME280;63818;37.134;-8.548;2023-05-14T00:55:28;101467.8;;;22.4;37.7
72124;BME280;63818;37.134;-8.548;2023-05-14T01:00:15;101460.8;;;22.4;37.7
72124;BME280;63818;37.134;-8.548;2023-05-14T01:05:04;101463.9;;;22.4;37.4
72124;BME280;63818;37.134;-8.548;2023-05-14T01:09:55;101453.0;;;22.4;37.8
72124;BME280;63818;37.134;-8.548;2023-05-14T01:14:53;101454.9;;;22.4;37.5
72124;BME280;63818;37.134;-8.548;2023-05-14T01:19:41;101454.5;;;22.4;37.9
72124;BME280;63818;37.134;-8.548;2023-05-14T01:24:27;101444.6;;;22.4;37.9
72124;BME280;63818;37.134;-8.548;2023-05-14T01:29:20;101442.7;;;22.4;37.7
72124;BME280;63818;37.134;-8.548;2023-05-14T01:34:07;101432.5;;;22.3;37.8
72124;BME280;63818;37.134;-8.548;2023-05-14T01:38:55;101432.8;;;22.3;38.0
72124;BME280;63818;37.134;-8.548;2023-05-14T01:43:47;101424.5;;;22.2;38.1
72124;BME280;63818;37.134;-8.548;2023-05-14T01:48:33;101429.2;;;22.2;37.8
72124;BME280;63818;37.134;-8.548;2023-05-14T01:53:19;101424.1;;;22.2;38.0
72124;BME280;63818;37.134;-8.548;2023-05-14T01:58:05;101422.1;;;22.2;37.9
72124;BME280;63818;37.134;-8.548;2023-05-14T02:02:51;101418.2;;;22.2;38.1
72124;BME280;63818;37.134;-8.548;2023-05-14T02:07:37;101415.4;;;22.1;38.1
72124;BME280;63818;37.134;-8.548;2023-05-14T02:12:25;101411.8;;;22.1;37.9
72124;BME280;63818;37.134;-8.548;2023-05-14T02:17:12;101409.9;;;22.1;38.4
72124;BME280;63818;37.134;-8.548;2023-05-14T02:21:59;101412.2;;;22.1;38.3
72124;BME280;63818;37.134;-8.548;2023-05-14T02:26:45;101410.6;;;22.1;38.4
72124;BME280;63818;37.134;-8.548;2023-05-14T02:31:31;101411.7;;;22.0;38.3
72124;BME280;63818;37.134;-8.548;2023-05-14T02:36:17;101409.8;;;22.1;38.2
72124;BME280;63818;37.134;-8.548;2023-05-14T02:41:02;101405.9;;;22.1;38.3
72124;BME280;63818;37.134;-8.548;2023-05-14T02:45:48;101418.4;;;22.1;38.4
72124;BME280;63818;37.134;-8.548;2023-05-14T02:50:35;101416.8;;;22.0;38.3
72124;BME280;63818;37.134;-8.548;2023-05-14T02:55:21;101422.6;;;22.0;38.1
72124;BME280;63818;37.134;-8.548;2023-05-14T03:00:08;101428.1;;;22.0;38.4
72124;BME280;63818;37.134;-8.548;2023-05-14T03:04:54;101421.8;;;22.0;38.2
72124;BME280;63818;37.134;-8.548;2023-05-14T03:09:40;101416.3;;;22.0;38.3
72124;BME280;63818;37.134;-8.548;2023-05-14T03:14:26;101417.0;;;21.9;38.6
72124;BME280;63818;37.134;-8.548;2023-05-14T03:19:11;101423.6;;;21.9;38.4
72124;BME280;63818;37.134;-8.548;2023-05-14T03:23:59;101422.8;;;21.9;38.7
72124;BME280;63818;37.134;-8.548;2023-05-14T03:28:45;101435.6;;;21.9;38.7
72124;BME280;63818;37.134;-8.548;2023-05-14T03:33:33;101439.5;;;21.8;39.0
72124;BME280;63818;37.134;-8.548;2023-05-14T03:38:19;101439.4;;;21.8;39.0
72124;BME280;63818;37.134;-8.548;2023-05-14T03:43:05;101448.8;;;21.8;38.6
72124;BME280;63818;37.134;-8.548;2023-05-14T03:47:51;101447.6;;;21.7;38.7
72124;BME280;63818;37.134;-8.548;2023-05-14T03:52:37;101446.3;;;21.7;38.9
72124;BME280;63818;37.134;-8.548;2023-05-14T03:57:23;101446.0;;;21.7;38.7
72124;BME280;63818;37.134;-8.548;2023-05-14T04:02:09;101447.6;;;21.7;38.9
72124;BME280;63818;37.134;-8.548;2023-05-14T04:06:56;101455.3;;;21.7;38.7
72124;BME280;63818;37.134;-8.548;2023-05-14T04:11:42;101455.7;;;21.7;39.0
72124;BME280;63818;37.134;-8.548;2023-05-14T04:16:28;101454.5;;;21.7;39.1
72124;BME280;63818;37.134;-8.548;2023-05-14T04:21:14;101464.5;;;21.6;39.1
72124;BME280;63818;37.134;-8.548;2023-05-14T04:26:00;101466.8;;;21.5;39.2
72124;BME280;63818;37.134;-8.548;2023-05-14T04:30:47;101473.7;;;21.5;39.2
72124;BME280;63818;37.134;-8.548;2023-05-14T04:35:33;101472.2;;;21.5;39.1
72124;BME280;63818;37.134;-8.548;2023-05-14T04:40:19;101476.1;;;21.5;39.3
72124;BME280;63818;37.134;-8.548;2023-05-14T04:45:05;101476.1;;;21.5;39.3
72124;BME280;63818;37.134;-8.548;2023-05-14T04:49:51;101490.4;;;21.5;39.4
72124;BME280;63818;37.134;-8.548;2023-05-14T04:54:37;101489.6;;;21.4;39.7
72124;BME280;63818;37.134;-8.548;2023-05-14T04:59:23;101497.7;;;21.4;39.6
72124;BME280;63818;37.134;-8.548;2023-05-14T05:04:09;101495.3;;;21.3;39.6
72124;BME280;63818;37.134;-8.548;2023-05-14T05:08:55;101498.3;;;21.3;39.7
72124;BME280;63818;37.134;-8.548;2023-05-14T05:13:41;101499.0;;;21.3;39.9
72124;BME280;63818;37.134;-8.548;2023-05-14T05:18:27;101502.5;;;21.2;39.7
72124;BME280;63818;37.134;-8.548;2023-05-14T05:23:12;101499.0;;;21.3;39.6
72124;BME280;63818;37.134;-8.548;2023-05-14T05:27:58;101511.2;;;21.3;40.0
72124;BME280;63818;37.134;-8.548;2023-05-14T05:32:44;101500.6;;;21.3;39.9
72124;BME280;63818;37.134;-8.548;2023-05-14T05:37:31;101502.8;;;21.2;40.2
72124;BME280;63818;37.134;-8.548;2023-05-14T05:42:19;101509.0;;;21.2;40.2
72124;BME280;63818;37.134;-8.548;2023-05-14T05:47:06;101522.2;;;21.2;40.1
72124;BME280;63818;37.134;-8.548;2023-05-14T05:51:51;101537.5;;;21.2;40.4
72124;BME280;63818;37.134;-8.548;2023-05-14T05:56:38;101549.8;;;21.1;41.4
72124;BME280;63818;37.134;-8.548;2023-05-14T06:01:23;101555.1;;;21.0;41.8
72124;BME280;63818;37.134;-8.548;2023-05-14T06:06:09;101554.7;;;21.0;42.2
72124;BME280;63818;37.134;-8.548;2023-05-14T06:10:55;101561.8;;;21.0;42.2
72124;BME280;63818;37.134;-8.548;2023-05-14T06:15:41;101566.5;;;21.0;42.6
72124;BME280;63818;37.134;-8.548;2023-05-14T06:20:27;101579.7;;;21.0;43.3
72124;BME280;63818;37.134;-8.548;2023-05-14T06:25:13;101596.5;;;21.0;43.4
72124;BME280;63818;37.134;-8.548;2023-05-14T06:29:59;101598.7;;;21.0;43.7
72124;BME280;63818;37.134;-8.548;2023-05-14T06:34:44;101590.7;;;21.0;44.1
72124;BME280;63818;37.134;-8.548;2023-05-14T06:39:30;101591.6;;;21.1;44.5
72124;BME280;63818;37.134;-8.548;2023-05-14T06:44:18;101600.0;;;21.0;44.7
72124;BME280;63818;37.134;-8.548;2023-05-14T06:49:04;101601.9;;;21.0;45.6
72124;BME280;63818;37.134;-8.548;2023-05-14T06:53:49;101608.9;;;21.0;45.9
72124;BME280;63818;37.134;-8.548;2023-05-14T06:58:35;101614.8;;;21.0;45.8
72124;BME280;63818;37.134;-8.548;2023-05-14T07:03:21;101605.9;;;21.0;45.8
72124;BME280;63818;37.134;-8.548;2023-05-14T07:08:07;101615.7;;;21.1;46.0
72124;BME280;63818;37.134;-8.548;2023-05-14T07:12:53;101608.6;;;21.0;46.4
72124;BME280;63818;37.134;-8.548;2023-05-14T07:17:40;101608.1;;;21.0;46.5
72124;BME280;63818;37.134;-8.548;2023-05-14T07:22:26;101611.7;;;21.0;46.3
72124;BME280;63818;37.134;-8.548;2023-05-14T07:27:12;101608.9;;;21.0;46.3
72124;BME280;63818;37.134;-8.548;2023-05-14T07:31:58;101606.5;;;20.9;45.8
72124;BME280;63818;37.134;-8.548;2023-05-14T07:36:44;101609.2;;;21.0;45.2
72124;BME280;63818;37.134;-8.548;2023-05-14T07:41:30;101609.6;;;20.9;45.5
72124;BME280;63818;37.134;-8.548;2023-05-14T07:46:19;101612.0;;;21.0;45.7
72124;BME280;63818;37.134;-8.548;2023-05-14T07:51:05;101615.2;;;21.0;45.2
72124;BME280;63818;37.134;-8.548;2023-05-14T07:55:51;101622.2;;;21.0;44.6
72124;BME280;63818;37.134;-8.548;2023-05-14T08:00:36;101618.9;;;20.9;44.7
72124;BME280;63818;37.134;-8.548;2023-05-14T08:05:23;101617.2;;;21.0;44.9
72124;BME280;63818;37.134;-8.548;2023-05-14T08:10:09;101617.4;;;21.1;44.7
72124;BME280;63818;37.134;-8.548;2023-05-14T08:14:55;101637.0;;;21.2;44.7
72124;BME280;63818;37.134;-8.548;2023-05-14T08:19:41;101636.2;;;21.2;44.8
72124;BME280;63818;37.134;-8.548;2023-05-14T08:24:27;101632.5;;;21.2;44.8
72124;BME280;63818;37.134;-8.548;2023-05-14T08:29:13;101632.1;;;21.2;44.0
72124;BME280;63818;37.134;-8.548;2023-05-14T08:33:59;101638.5;;;21.3;44.3
72124;BME280;63818;37.134;-8.548;2023-05-14T08:38:45;101643.2;;;21.3;44.3
72124;BME280;63818;37.134;-8.548;2023-05-14T08:43:36;101636.1;;;21.2;43.8
72124;BME280;63818;37.134;-8.548;2023-05-14T08:48:31;101636.8;;;21.2;43.9
72124;BME280;63818;37.134;-8.548;2023-05-14T08:53:17;101634.9;;;21.3;44.1
72124;BME280;63818;37.134;-8.548;2023-05-14T08:58:03;101643.8;;;21.2;44.5
72124;BME280;63818;37.134;-8.548;2023-05-14T09:02:49;101647.8;;;21.2;44.6
72124;BME280;63818;37.134;-8.548;2023-05-14T09:07:36;101651.4;;;21.3;44.3
72124;BME280;63818;37.134;-8.548;2023-05-14T09:12:22;101643.6;;;21.3;44.3
72124;BME280;63818;37.134;-8.548;2023-05-14T09:17:08;101654.7;;;21.4;45.2
72124;BME280;63818;37.134;-8.548;2023-05-14T09:21:56;101648.5;;;21.4;44.3
72124;BME280;63818;37.134;-8.548;2023-05-14T09:26:43;101645.4;;;21.4;44.2
72124;BME280;63818;37.134;-8.548;2023-05-14T09:31:30;101647.8;;;21.4;44.1
72124;BME280;63818;37.134;-8.548;2023-05-14T09:36:17;101640.1;;;21.5;44.0
72124;BME280;63818;37.134;-8.548;2023-05-14T09:41:03;101645.7;;;21.5;44.1
72124;BME280;63818;37.134;-8.548;2023-05-14T09:45:52;101643.4;;;21.5;44.0
72124;BME280;63818;37.134;-8.548;2023-05-14T09:50:45;101643.7;;;21.5;44.8
72124;BME280;63818;37.134;-8.548;2023-05-14T09:55:31;101645.6;;;21.5;44.4
72124;BME280;63818;37.134;-8.548;2023-05-14T10:00:20;101649.0;;;21.4;44.5
72124;BME280;63818;37.134;-8.548;2023-05-14T10:05:14;101633.6;;;21.4;44.7
72124;BME280;63818;37.134;-8.548;2023-05-14T10:10:02;101636.6;;;21.3;44.3
72124;BME280;63818;37.134;-8.548;2023-05-14T10:14:49;101626.1;;;21.3;44.2
72124;BME280;63818;37.134;-8.548;2023-05-14T10:19:37;101621.0;;;21.3;43.9
72124;BME280;63818;37.134;-8.548;2023-05-14T10:24:30;101627.6;;;21.3;42.9
72124;BME280;63818;37.134;-8.548;2023-05-14T10:29:17;101623.7;;;21.3;43.0
72124;BME280;63818;37.134;-8.548;2023-05-14T10:34:17;101633.2;;;21.4;43.4
72124;BME280;63818;37.134;-8.548;2023-05-14T10:39:08;101625.0;;;21.4;44.8
72124;BME280;63818;37.134;-8.548;2023-05-14T10:43:56;101634.3;;;21.3;45.5
72124;BME280;63818;37.134;-8.548;2023-05-14T10:48:42;101634.4;;;21.4;46.0
72124;BME280;63818;37.134;-8.548;2023-05-14T10:53:35;101636.3;;;21.4;45.6
72124;BME280;63818;37.134;-8.548;2023-05-14T10:58:24;101634.1;;;21.4;46.4
72124;BME280;63818;37.134;-8.548;2023-05-14T11:03:09;101627.9;;;21.4;46.8
72124;BME280;63818;37.134;-8.548;2023-05-14T11:07:58;101634.6;;;21.5;46.6
72124;BME280;63818;37.134;-8.548;2023-05-14T11:12:51;101628.0;;;21.5;47.0
72124;BME280;63818;37.134;-8.548;2023-05-14T11:17:39;101631.7;;;21.6;48.0
72124;BME280;63818;37.134;-8.548;2023-05-14T11:22:26;101633.7;;;21.6;48.5
72124;BME280;63818;37.134;-8.548;2023-05-14T11:27:13;101627.1;;;21.6;49.2
72124;BME280;63818;37.134;-8.548;2023-05-14T11:32:00;101625.7;;;21.7;49.0
72124;BME280;63818;37.134;-8.548;2023-05-14T11:36:46;101632.8;;;21.7;49.2
72124;BME280;63818;37.134;-8.548;2023-05-14T11:41:32;101623.0;;;21.7;49.4
72124;BME280;63818;37.134;-8.548;2023-05-14T11:46:18;101624.6;;;21.7;49.4
72124;BME280;63818;37.134;-8.548;2023-05-14T11:51:06;101627.7;;;21.8;49.7
72124;BME280;63818;37.134;-8.548;2023-05-14T11:55:52;101621.1;;;21.8;48.8
72124;BME280;63818;37.134;-8.548;2023-05-14T12:00:54;101605.1;;;21.8;45.8
72124;BME280;63818;37.134;-8.548;2023-05-14T12:05:55;101601.6;;;21.8;45.8
72124;BME280;63818;37.134;-8.548;2023-05-14T12:10:42;101603.3;;;21.8;45.8
72124;BME280;63818;37.134;-8.548;2023-05-14T12:15:32;101604.9;;;21.9;45.2
72124;BME280;63818;37.134;-8.548;2023-05-14T12:20:18;101605.8;;;21.9;44.4
72124;BME280;63818;37.134;-8.548;2023-05-14T12:25:10;101580.9;;;22.0;43.2
72124;BME280;63818;37.134;-8.548;2023-05-14T12:30:03;101568.8;;;22.0;41.0
72124;BME280;63818;37.134;-8.548;2023-05-14T12:34:52;101559.8;;;22.0;39.2
72124;BME280;63818;37.134;-8.548;2023-05-14T12:39:38;101546.2;;;22.0;38.5
72124;BME280;63818;37.134;-8.548;2023-05-14T12:44:30;101537.8;;;22.1;36.4
72124;BME280;63818;37.134;-8.548;2023-05-14T12:49:19;101529.3;;;22.2;34.5
72124;BME280;63818;37.134;-8.548;2023-05-14T12:54:05;101541.0;;;22.4;31.5
72124;BME280;63818;37.134;-8.548;2023-05-14T12:58:59;101502.7;;;22.5;31.9
72124;BME280;63818;37.134;-8.548;2023-05-14T13:03:45;101515.5;;;22.6;30.0
72124;BME280;63818;37.134;-8.548;2023-05-14T13:08:38;101541.9;;;22.7;30.5
72124;BME280;63818;37.134;-8.548;2023-05-14T13:13:24;101521.0;;;22.9;29.8
72124;BME280;63818;37.134;-8.548;2023-05-14T13:18:10;101524.1;;;22.9;30.1
72124;BME280;63818;37.134;-8.548;2023-05-14T13:22:58;101493.5;;;22.9;30.3
72124;BME280;63818;37.134;-8.548;2023-05-14T13:27:44;101516.0;;;23.0;29.8
72124;BME280;63818;37.134;-8.548;2023-05-14T13:32:30;101502.3;;;23.0;28.7
72124;BME280;63818;37.134;-8.548;2023-05-14T13:37:16;101504.3;;;23.0;28.9
72124;BME280;63818;37.134;-8.548;2023-05-14T13:42:04;101520.5;;;23.1;29.8
72124;BME280;63818;37.134;-8.548;2023-05-14T13:46:50;101510.8;;;23.2;29.9
72124;BME280;63818;37.134;-8.548;2023-05-14T13:51:36;101497.5;;;23.2;29.8
72124;BME280;63818;37.134;-8.548;2023-05-14T13:56:27;101525.4;;;23.3;31.5
72124;BME280;63818;37.134;-8.548;2023-05-14T14:01:13;101490.9;;;23.3;28.6
72124;BME280;63818;37.134;-8.548;2023-05-14T14:06:01;101499.1;;;23.3;28.3
72124;BME280;63818;37.134;-8.548;2023-05-14T14:10:47;101504.9;;;23.2;26.6
72124;BME280;63818;37.134;-8.548;2023-05-14T14:15:35;101491.0;;;23.4;27.6
72124;BME280;63818;37.134;-8.548;2023-05-14T14:20:21;101529.6;;;23.5;25.8
72124;BME280;63818;37.134;-8.548;2023-05-14T14:25:10;101522.5;;;23.5;26.2
72124;BME280;63818;37.134;-8.548;2023-05-14T14:29:59;101518.2;;;23.5;28.7
72124;BME280;63818;37.134;-8.548;2023-05-14T14:34:45;101521.8;;;23.5;28.4
72124;BME280;63818;37.134;-8.548;2023-05-14T14:39:31;101511.5;;;23.5;32.6
72124;BME280;63818;37.134;-8.548;2023-05-14T14:44:17;101533.9;;;23.5;33.2
72124;BME280;63818;37.134;-8.548;2023-05-14T14:49:03;101546.0;;;23.5;34.9
72124;BME280;63818;37.134;-8.548;2023-05-14T14:53:49;101547.0;;;23.3;35.9
72124;BME280;63818;37.134;-8.548;2023-05-14T14:58:37;101553.2;;;23.3;36.1
72124;BME280;63818;37.134;-8.548;2023-05-14T15:03:23;101572.1;;;23.3;37.7
72124;BME280;63818;37.134;-8.548;2023-05-14T15:08:09;101548.1;;;23.3;37.9
72124;BME280;63818;37.134;-8.548;2023-05-14T15:12:57;101539.5;;;23.3;38.0
72124;BME280;63818;37.134;-8.548;2023-05-14T15:17:43;101530.1;;;23.3;37.9
72124;BME280;63818;37.134;-8.548;2023-05-14T15:22:29;101546.2;;;23.4;38.4
72124;BME280;63818;37.134;-8.548;2023-05-14T15:27:15;101550.5;;;23.4;38.2
72124;BME280;63818;37.134;-8.548;2023-05-14T15:32:02;101535.3;;;23.4;38.6
72124;BME280;63818;37.134;-8.548;2023-05-14T15:36:48;101546.1;;;23.5;37.4
72124;BME280;63818;37.134;-8.548;2023-05-14T15:41:34;101534.8;;;23.6;35.9
72124;BME280;63818;37.134;-8.548;2023-05-14T15:46:20;101548.6;;;23.7;35.3
72124;BME280;63818;37.134;-8.548;2023-05-14T15:51:06;101529.2;;;23.9;34.6
72124;BME280;63818;37.134;-8.548;2023-05-14T15:55:54;101563.1;;;24.1;33.7
72124;BME280;63818;37.134;-8.548;2023-05-14T16:00:40;101524.9;;;24.4;34.1
72124;BME280;63818;37.134;-8.548;2023-05-14T16:05:28;101516.4;;;24.5;34.7
72124;BME280;63818;37.134;-8.548;2023-05-14T16:10:14;101551.1;;;24.7;34.1
72124;BME280;63818;37.134;-8.548;2023-05-14T16:15:00;101535.5;;;24.9;33.7
72124;BME280;63818;37.134;-8.548;2023-05-14T16:19:46;101546.9;;;24.9;32.9
72124;BME280;63818;37.134;-8.548;2023-05-14T16:24:32;101528.1;;;25.1;32.8
72124;BME280;63818;37.134;-8.548;2023-05-14T16:29:18;101531.7;;;25.1;32.5
72124;BME280;63818;37.134;-8.548;2023-05-14T16:34:04;101547.8;;;25.1;32.7
72124;BME280;63818;37.134;-8.548;2023-05-14T16:38:50;101589.1;;;25.2;32.4
72124;BME280;63818;37.134;-8.548;2023-05-14T16:43:36;101565.8;;;25.0;31.8
72124;BME280;63818;37.134;-8.548;2023-05-14T16:48:22;101552.4;;;24.9;31.8
72124;BME280;63818;37.134;-8.548;2023-05-14T16:53:08;101553.1;;;24.8;32.1
72124;BME280;63818;37.134;-8.548;2023-05-14T16:57:54;101559.3;;;24.7;32.7
72124;BME280;63818;37.134;-8.548;2023-05-14T17:02:40;101543.6;;;24.7;33.2
72124;BME280;63818;37.134;-8.548;2023-05-14T17:07:26;101515.6;;;24.5;33.4
72124;BME280;63818;37.134;-8.548;2023-05-14T17:12:12;101514.8;;;24.5;33.6
72124;BME280;63818;37.134;-8.548;2023-05-14T17:16:58;101533.3;;;24.6;33.9
72124;BME280;63818;37.134;-8.548;2023-05-14T17:21:44;101547.4;;;24.5;33.1
72124;BME280;63818;37.134;-8.548;2023-05-14T17:26:30;101563.4;;;24.4;32.7
72124;BME280;63818;37.134;-8.548;2023-05-14T17:31:16;101574.0;;;24.4;33.2
72124;BME280;63818;37.134;-8.548;2023-05-14T17:36:01;101524.8;;;24.2;33.2
72124;BME280;63818;37.134;-8.548;2023-05-14T17:40:51;101541.9;;;24.1;33.0
72124;BME280;63818;37.134;-8.548;2023-05-14T17:45:37;101542.7;;;24.0;33.2
72124;BME280;63818;37.134;-8.548;2023-05-14T17:50:26;101537.9;;;24.0;33.2
72124;BME280;63818;37.134;-8.548;2023-05-14T17:55:12;101544.1;;;24.0;33.6
72124;BME280;63818;37.134;-8.548;2023-05-14T17:59:59;101559.4;;;23.9;33.8
72124;BME280;63818;37.134;-8.548;2023-05-14T18:04:45;101560.1;;;23.8;33.7
72124;BME280;63818;37.134;-8.548;2023-05-14T18:09:31;101553.4;;;23.8;33.4
72124;BME280;63818;37.134;-8.548;2023-05-14T18:14:16;101566.3;;;23.8;34.2
72124;BME280;63818;37.134;-8.548;2023-05-14T18:19:03;101574.5;;;23.7;34.2
72124;BME280;63818;37.134;-8.548;2023-05-14T18:23:49;101552.5;;;23.7;34.3
72124;BME280;63818;37.134;-8.548;2023-05-14T18:28:37;101547.5;;;23.8;34.6
72124;BME280;63818;37.134;-8.548;2023-05-14T18:33:25;101562.7;;;23.7;34.1
72124;BME280;63818;37.134;-8.548;2023-05-14T18:38:11;101552.6;;;23.8;34.2
72124;BME280;63818;37.134;-8.548;2023-05-14T18:42:57;101578.0;;;23.7;33.8
72124;BME280;63818;37.134;-8.548;2023-05-14T18:47:43;101552.1;;;23.7;33.6
72124;BME280;63818;37.134;-8.548;2023-05-14T18:52:29;101545.1;;;23.7;34.0
72124;BME280;63818;37.134;-8.548;2023-05-14T18:57:21;101554.0;;;23.7;34.0
72124;BME280;63818;37.134;-8.548;2023-05-14T19:02:08;101552.0;;;23.6;33.6
72124;BME280;63818;37.134;-8.548;2023-05-14T19:06:54;101556.2;;;23.5;33.9
72124;BME280;63818;37.134;-8.548;2023-05-14T19:11:40;101565.1;;;23.4;34.3
72124;BME280;63818;37.134;-8.548;2023-05-14T19:16:29;101573.2;;;23.3;34.6
72124;BME280;63818;37.134;-8.548;2023-05-14T19:21:16;101573.2;;;23.3;35.2
72124;BME280;63818;37.134;-8.548;2023-05-14T19:26:02;101578.3;;;23.3;35.2
72124;BME280;63818;37.134;-8.548;2023-05-14T19:30:50;101575.4;;;23.2;35.9
72124;BME280;63818;37.134;-8.548;2023-05-14T19:35:36;101581.2;;;23.1;36.1
72124;BME280;63818;37.134;-8.548;2023-05-14T19:40:22;101576.1;;;23.1;36.7
72124;BME280;63818;37.134;-8.548;2023-05-14T19:45:11;101585.0;;;23.1;37.1
72124;BME280;63818;37.134;-8.548;2023-05-14T19:49:57;101602.9;;;22.9;37.1
72124;BME280;63818;37.134;-8.548;2023-05-14T19:54:43;101585.9;;;22.9;37.4
72124;BME280;63818;37.134;-8.548;2023-05-14T19:59:29;101590.6;;;22.9;37.5
72124;BME280;63818;37.134;-8.548;2023-05-14T20:04:15;101608.1;;;22.8;37.7
72124;BME280;63818;37.134;-8.548;2023-05-14T20:09:01;101599.7;;;22.7;38.0
72124;BME280;63818;37.134;-8.548;2023-05-14T20:13:47;101610.7;;;22.7;37.8
72124;BME280;63818;37.134;-8.548;2023-05-14T20:18:33;101598.5;;;22.7;37.7
72124;BME280;63818;37.134;-8.548;2023-05-14T20:23:19;101612.1;;;22.6;37.1
72124;BME280;63818;37.134;-8.548;2023-05-14T20:28:05;101601.9;;;22.6;37.1
72124;BME280;63818;37.134;-8.548;2023-05-14T20:32:51;101611.1;;;22.7;36.8
72124;BME280;63818;37.134;-8.548;2023-05-14T20:37:37;101616.3;;;22.8;36.4
72124;BME280;63818;37.134;-8.548;2023-05-14T20:42:24;101614.8;;;22.8;36.4
72124;BME280;63818;37.134;-8.548;2023-05-14T20:47:12;101611.6;;;22.7;36.0
72124;BME280;63818;37.134;-8.548;2023-05-14T20:51:58;101622.4;;;22.7;36.0
72124;BME280;63818;37.134;-8.548;2023-05-14T20:56:43;101625.7;;;22.8;35.8
72124;BME280;63818;37.134;-8.548;2023-05-14T21:01:30;101630.9;;;22.8;36.0
72124;BME280;63818;37.134;-8.548;2023-05-14T21:06:16;101639.8;;;22.8;35.5
72124;BME280;63818;37.134;-8.548;2023-05-14T21:11:01;101647.5;;;22.7;35.6
72124;BME280;63818;37.134;-8.548;2023-05-14T21:15:48;101649.6;;;22.6;35.7
72124;BME280;63818;37.134;-8.548;2023-05-14T21:20:34;101656.4;;;22.4;36.0
72124;BME280;63818;37.134;-8.548;2023-05-14T21:25:20;101660.7;;;22.4;36.2
72124;BME280;63818;37.134;-8.548;2023-05-14T21:30:06;101648.4;;;22.5;35.7
72124;BME280;63818;37.134;-8.548;2023-05-14T21:34:52;101653.2;;;22.6;35.6
72124;BME280;63818;37.134;-8.548;2023-05-14T21:39:39;101647.8;;;22.6;35.4
72124;BME280;63818;37.134;-8.548;2023-05-14T21:44:24;101644.3;;;22.7;35.1
72124;BME280;63818;37.134;-8.548;2023-05-14T21:49:10;101642.3;;;22.7;35.1
72124;BME280;63818;37.134;-8.548;2023-05-14T21:53:56;101632.6;;;22.7;34.7
72124;BME280;63818;37.134;-8.548;2023-05-14T21:58:42;101640.7;;;22.6;34.7
72124;BME280;63818;37.134;-8.548;2023-05-14T22:03:29;101655.1;;;22.6;34.8
72124;BME280;63818;37.134;-8.548;2023-05-14T22:08:15;101661.7;;;22.5;35.8
72124;BME280;63818;37.134;-8.548;2023-05-14T22:13:00;101656.2;;;22.5;36.6
72124;BME280;63818;37.134;-8.548;2023-05-14T22:17:47;101668.6;;;22.5;37.7
72124;BME280;63818;37.134;-8.548;2023-05-14T22:22:33;101670.2;;;22.5;38.3
72124;BME280;63818;37.134;-8.548;2023-05-14T22:27:18;101664.3;;;22.5;38.4
72124;BME280;63818;37.134;-8.548;2023-05-14T22:32:05;101668.2;;;22.5;38.9
72124;BME280;63818;37.134;-8.548;2023-05-14T22:36:51;101668.6;;;22.5;39.8
72124;BME280;63818;37.134;-8.548;2023-05-14T22:41:37;101672.5;;;22.5;40.5
72124;BME280;63818;37.134;-8.548;2023-05-14T22:46:23;101675.2;;;22.4;41.0
72124;BME280;63818;37.134;-8.548;2023-05-14T22:51:08;101675.6;;;22.4;41.8
72124;BME280;63818;37.134;-8.548;2023-05-14T22:55:54;101674.9;;;22.5;42.4
72124;BME280;63818;37.134;-8.548;2023-05-14T23:00:40;101666.2;;;22.4;42.1
72124;BME280;63818;37.134;-8.548;2023-05-14T23:05:26;101673.2;;;22.4;42.5
72124;BME280;63818;37.134;-8.548;2023-05-14T23:10:13;101670.4;;;22.4;42.8
72124;BME280;63818;37.134;-8.548;2023-05-14T23:14:59;101676.2;;;22.4;43.0
72124;BME280;63818;37.134;-8.548;2023-05-14T23:19:45;101672.6;;;22.3;44.2
72124;BME280;63818;37.134;-8.548;2023-05-14T23:24:31;101675.5;;;22.2;44.7
72124;BME280;63818;37.134;-8.548;2023-05-14T23:29:17;101671.9;;;22.1;45.5
72124;BME280;63818;37.134;-8.548;2023-05-14T23:34:03;101677.0;;;22.1;46.4
72124;BME280;63818;37.134;-8.548;2023-05-14T23:38:50;101670.1;;;22.0;46.6
72124;BME280;63818;37.134;-8.548;2023-05-14T23:43:36;101664.2;;;22.0;46.7
72124;BME280;63818;37.134;-8.548;2023-05-14T23:48:22;101661.5;;;22.0;46.4
72124;BME280;63818;37.134;-8.548;2023-05-14T23:53:08;101658.3;;;22.0;46.3
72124;BME280;63818;37.134;-8.548;2023-05-14T23:57:54;101659.1;;;22.0;45.9
